sensor_id;sensor_type;location;lat;lon;timestamp;temperature;humidity
19654;DHT22;9975;48.046;7.804;2022-11-15T01:57:26;8.90;99.90
19654;DHT22;9975;48.046;7.804;2022-11-15T01:59:52;8.90;99.90
19654;DHT22;9975;48.046;7.804;2022-11-15T02:02:17;8.90;99.90
19654;DHT22;9975;48.046;7.804;2022-11-15T02:04:45;8.90;99.90
19654;DHT22;9975;48.046;7.804;2022-11-15T02:07:15;8.90;99.90
19654;DHT22;9975;48.046;7.804;2022-11-15T02:09:41;8.90;99.90
19654;DHT22;9975;48.046;7.804;2022-11-15T02:12:09;8.90;99.90
19654;DHT22;9975;48.046;7.804;2022-11-15T02:14:37;8.90;99.90
19654;DHT22;9975;48.046;7.804;2022-11-15T02:27:53;8.80;99.90
19654;DHT22;9975;48.046;7.804;2022-11-15T02:33:27;8.80;99.90
19654;DHT22;9975;48.046;7.804;2022-11-15T02:36:21;8.80;99.90
19654;DHT22;9975;48.046;7.804;2022-11-15T02:38:58;8.80;99.90
19654;DHT22;9975;48.046;7.804;2022-11-15T02:44:47;8.80;99.90
19654;DHT22;9975;48.046;7.804;2022-11-15T02:47:16;8.80;99.90
19654;DHT22;9975;48.046;7.804;2022-11-15T02:49:53;8.80;99.90
19654;DHT22;9975;48.046;7.804;2022-11-15T02:52:21;8.80;99.90
19654;DHT22;9975;48.046;7.804;2022-11-15T02:54:59;8.80;99.90
19654;DHT22;9975;48.046;7.804;2022-11-15T02:57:48;8.80;99.90
19654;DHT22;9975;48.046;7.804;2022-11-15T03:00:17;8.80;99.90
19654;DHT22;9975;48.046;7.804;2022-11-15T03:05:17;8.90;99.90
19654;DHT22;9975;48.046;7.804;2022-11-15T03:08:13;8.90;99.90
19654;DHT22;9975;48.046;7.804;2022-11-15T03:11:17;8.90;99.90
19654;DHT22;9975;48.046;7.804;2022-11-15T03:14:08;8.90;99.90
19654;DHT22;9975;48.046;7.804;2022-11-15T03:19:49;8.90;99.90
19654;DHT22;9975;48.046;7.804;2022-11-15T03:22:19;9.00;99.90
19654;DHT22;9975;48.046;7.804;2022-11-15T03:24:47;9.00;99.90
19654;DHT22;9975;48.046;7.804;2022-11-15T03:27:18;8.90;99.90
19654;DHT22;9975;48.046;7.804;2022-11-15T03:29:51;8.90;99.90
19654;DHT22;9975;48.046;7.804;2022-11-15T03:32:25;8.90;99.90
19654;DHT22;9975;48.046;7.804;2022-11-15T03:34:57;9.00;99.90
19654;DHT22;9975;48.046;7.804;2022-11-15T03:37:34;9.00;99.90
19654;DHT22;9975;48.046;7.804;2022-11-15T03:40:02;9.00;99.90
19654;DHT22;9975;48.046;7.804;2022-11-15T03:42:51;9.00;99.90
19654;DHT22;9975;48.046;7.804;2022-11-15T03:45:23;9.10;99.90
19654;DHT22;9975;48.046;7.804;2022-11-15T03:48:09;9.00;99.90
19654;DHT22;9975;48.046;7.804;2022-11-15T03:50:36;9.10;99.90
19654;DHT22;9975;48.046;7.804;2022-11-15T03:53:02;9.10;99.90
19654;DHT22;9975;48.046;7.804;2022-11-15T03:55:28;9.10;99.90
19654;DHT22;9975;48.046;7.804;2022-11-15T03:57:58;9.10;99.90
19654;DHT22;9975;48.046;7.804;2022-11-15T04:00:24;9.00;99.90
19654;DHT22;9975;48.046;7.804;2022-11-15T04:02:49;9.10;99.90
19654;DHT22;9975;48.046;7.804;2022-11-15T04:07:41;9.00;99.90
19654;DHT22;9975;48.046;7.804;2022-11-15T04:10:08;9.00;99.90
19654;DHT22;9975;48.046;7.804;2022-11-15T04:12:36;9.00;99.90
19654;DHT22;9975;48.046;7.804;2022-11-15T04:15:07;9.00;99.90
19654;DHT22;9975;48.046;7.804;2022-11-15T04:17:35;9.20;99.90
19654;DHT22;9975;48.046;7.804;2022-11-15T04:20:03;9.20;99.90
19654;DHT22;9975;48.046;7.804;2022-11-15T04:22:48;9.20;99.90
19654;DHT22;9975;48.046;7.804;2022-11-15T04:25:32;9.20;99.90
19654;DHT22;9975;48.046;7.804;2022-11-15T04:27:57;9.20;99.90
19654;DHT22;9975;48.046;7.804;2022-11-15T04:30:23;9.20;99.90
19654;DHT22;9975;48.046;7.804;2022-11-15T04:32:49;9.10;99.90
19654;DHT22;9975;48.046;7.804;2022-11-15T04:35:14;9.10;99.90
19654;DHT22;9975;48.046;7.804;2022-11-15T04:37:40;9.10;99.90
19654;DHT22;9975;48.046;7.804;2022-11-15T04:40:06;9.20;99.90
19654;DHT22;9975;48.046;7.804;2022-11-15T04:42:32;9.30;99.90
19654;DHT22;9975;48.046;7.804;2022-11-15T04:44:57;9.30;99.90
19654;DHT22;9975;48.046;7.804;2022-11-15T04:47:23;9.30;99.90
19654;DHT22;9975;48.046;7.804;2022-11-15T04:49:48;9.40;99.90
19654;DHT22;9975;48.046;7.804;2022-11-15T04:52:14;9.50;99.90
19654;DHT22;9975;48.046;7.804;2022-11-15T04:54:40;9.50;99.90
19654;DHT22;9975;48.046;7.804;2022-11-15T04:57:07;9.50;99.90
19654;DHT22;9975;48.046;7.804;2022-11-15T04:59:33;9.50;99.90
19654;DHT22;9975;48.046;7.804;2022-11-15T05:01:58;9.50;99.90
19654;DHT22;9975;48.046;7.804;2022-11-15T05:04:24;9.40;99.90
19654;DHT22;9975;48.046;7.804;2022-11-15T05:06:51;9.40;99.90
19654;DHT22;9975;48.046;7.804;2022-11-15T05:09:18;9.40;99.90
19654;DHT22;9975;48.046;7.804;2022-11-15T05:11:44;9.40;99.90
19654;DHT22;9975;48.046;7.804;2022-11-15T05:14:10;9.40;99.90
19654;DHT22;9975;48.046;7.804;2022-11-15T05:16:36;9.40;99.90
19654;DHT22;9975;48.046;7.804;2022-11-15T05:19:03;9.50;99.90
19654;DHT22;9975;48.046;7.804;2022-11-15T05:21:28;9.50;99.90
19654;DHT22;9975;48.046;7.804;2022-11-15T05:23:54;9.50;99.90
19654;DHT22;9975;48.046;7.804;2022-11-15T05:26:20;9.50;99.90
19654;DHT22;9975;48.046;7.804;2022-11-15T05:31:14;9.60;99.90
19654;DHT22;9975;48.046;7.804;2022-11-15T05:33:41;9.60;99.90
19654;DHT22;9975;48.046;7.804;2022-11-15T05:38:39;9.70;99.90
19654;DHT22;9975;48.046;7.804;2022-11-15T05:41:06;9.70;99.90
19654;DHT22;9975;48.046;7.804;2022-11-15T05:43:34;9.70;99.90
19654;DHT22;9975;48.046;7.804;2022-11-15T05:46:01;9.60;99.90
19654;DHT22;9975;48.046;7.804;2022-11-15T05:48:28;9.80;99.90
19654;DHT22;9975;48.046;7.804;2022-11-15T05:50:54;9.80;99.90
19654;DHT22;9975;48.046;7.804;2022-11-15T05:53:21;9.90;99.90
19654;DHT22;9975;48.046;7.804;2022-11-15T05:55:48;9.90;99.90
19654;DHT22;9975;48.046;7.804;2022-11-15T05:58:14;9.90;99.90
19654;DHT22;9975;48.046;7.804;2022-11-15T06:00:40;9.90;99.90
19654;DHT22;9975;48.046;7.804;2022-11-15T06:03:06;10.00;99.90
19654;DHT22;9975;48.046;7.804;2022-11-15T06:05:31;10.00;99.90
19654;DHT22;9975;48.046;7.804;2022-11-15T06:07:58;9.90;99.90
19654;DHT22;9975;48.046;7.804;2022-11-15T06:10:24;9.90;99.90
19654;DHT22;9975;48.046;7.804;2022-11-15T06:13:00;9.80;99.90
19654;DHT22;9975;48.046;7.804;2022-11-15T06:15:26;9.80;99.90
19654;DHT22;9975;48.046;7.804;2022-11-15T06:17:52;9.80;99.90
19654;DHT22;9975;48.046;7.804;2022-11-15T06:20:23;9.80;99.90
19654;DHT22;9975;48.046;7.804;2022-11-15T06:22:48;9.80;99.90
19654;DHT22;9975;48.046;7.804;2022-11-15T06:25:14;9.80;99.90
19654;DHT22;9975;48.046;7.804;2022-11-15T06:27:40;9.80;99.90
19654;DHT22;9975;48.046;7.804;2022-11-15T06:30:06;9.80;99.90
19654;DHT22;9975;48.046;7.804;2022-11-15T06:32:31;9.70;99.90
19654;DHT22;9975;48.046;7.804;2022-11-15T06:34:57;9.70;99.90
19654;DHT22;9975;48.046;7.804;2022-11-15T06:37:22;9.70;99.90
19654;DHT22;9975;48.046;7.804;2022-11-15T06:39:48;9.70;99.90
19654;DHT22;9975;48.046;7.804;2022-11-15T06:42:20;9.70;99.90
19654;DHT22;9975;48.046;7.804;2022-11-15T06:44:45;9.70;99.90
19654;DHT22;9975;48.046;7.804;2022-11-15T06:47:11;9.60;99.90
19654;DHT22;9975;48.046;7.804;2022-11-15T06:49:36;9.60;99.90
19654;DHT22;9975;48.046;7.804;2022-11-15T06:52:02;9.60;99.90
19654;DHT22;9975;48.046;7.804;2022-11-15T06:54:28;9.60;99.90
19654;DHT22;9975;48.046;7.804;2022-11-15T06:59:19;9.60;99.90
19654;DHT22;9975;48.046;7.804;2022-11-15T07:01:45;9.60;99.90
19654;DHT22;9975;48.046;7.804;2022-11-15T07:04:10;9.60;99.90
19654;DHT22;9975;48.046;7.804;2022-11-15T07:06:36;9.60;99.90
19654;DHT22;9975;48.046;7.804;2022-11-15T07:09:02;9.60;99.90
19654;DHT22;9975;48.046;7.804;2022-11-15T07:11:28;9.60;99.90
19654;DHT22;9975;48.046;7.804;2022-11-15T07:13:54;9.60;99.90
19654;DHT22;9975;48.046;7.804;2022-11-15T07:16:19;9.60;99.90
19654;DHT22;9975;48.046;7.804;2022-11-15T07:18:45;9.60;99.90
19654;DHT22;9975;48.046;7.804;2022-11-15T07:21:10;9.60;99.90
19654;DHT22;9975;48.046;7.804;2022-11-15T07:23:38;9.60;99.90
19654;DHT22;9975;48.046;7.804;2022-11-15T07:26:05;9.60;99.90
19654;DHT22;9975;48.046;7.804;2022-11-15T07:28:30;9.70;99.90
19654;DHT22;9975;48.046;7.804;2022-11-15T07:33:22;9.70;99.90
19654;DHT22;9975;48.046;7.804;2022-11-15T07:35:48;9.70;99.90
19654;DHT22;9975;48.046;7.804;2022-11-15T07:38:14;9.80;99.90
19654;DHT22;9975;48.046;7.804;2022-11-15T07:40:46;9.80;99.90
19654;DHT22;9975;48.046;7.804;2022-11-15T07:43:12;9.80;99.90
19654;DHT22;9975;48.046;7.804;2022-11-15T07:45:42;9.80;99.90
19654;DHT22;9975;48.046;7.804;2022-11-15T07:48:08;9.80;99.90
19654;DHT22;9975;48.046;7.804;2022-11-15T07:50:34;9.90;99.90
19654;DHT22;9975;48.046;7.804;2022-11-15T07:52:59;9.90;99.90
19654;DHT22;9975;48.046;7.804;2022-11-15T07:55:26;9.90;99.90
19654;DHT22;9975;48.046;7.804;2022-11-15T07:57:59;10.00;99.90
19654;DHT22;9975;48.046;7.804;2022-11-15T08:00:25;10.00;99.90
19654;DHT22;9975;48.046;7.804;2022-11-15T08:02:50;10.10;99.90
19654;DHT22;9975;48.046;7.804;2022-11-15T08:05:16;10.10;99.90
19654;DHT22;9975;48.046;7.804;2022-11-15T08:07:41;10.10;99.90
19654;DHT22;9975;48.046;7.804;2022-11-15T08:10:07;10.30;99.90
19654;DHT22;9975;48.046;7.804;2022-11-15T08:12:33;10.30;99.90
19654;DHT22;9975;48.046;7.804;2022-11-15T08:14:59;10.30;99.90
19654;DHT22;9975;48.046;7.804;2022-11-15T08:17:25;10.30;99.90
19654;DHT22;9975;48.046;7.804;2022-11-15T08:19:51;10.40;99.90
19654;DHT22;9975;48.046;7.804;2022-11-15T08:22:17;10.50;99.90
19654;DHT22;9975;48.046;7.804;2022-11-15T08:24:43;10.50;99.90
19654;DHT22;9975;48.046;7.804;2022-11-15T08:27:09;10.50;99.90
19654;DHT22;9975;48.046;7.804;2022-11-15T08:29:46;10.60;99.90
19654;DHT22;9975;48.046;7.804;2022-11-15T08:32:12;10.60;99.90
19654;DHT22;9975;48.046;7.804;2022-11-15T08:34:38;10.60;99.90
19654;DHT22;9975;48.046;7.804;2022-11-15T08:37:04;10.60;99.90
19654;DHT22;9975;48.046;7.804;2022-11-15T08:39:30;10.70;99.90
19654;DHT22;9975;48.046;7.804;2022-11-15T08:41:56;10.60;99.90
19654;DHT22;9975;48.046;7.804;2022-11-15T08:44:22;10.70;99.90
19654;DHT22;9975;48.046;7.804;2022-11-15T08:46:49;10.70;99.90
19654;DHT22;9975;48.046;7.804;2022-11-15T08:51:41;10.70;99.90
19654;DHT22;9975;48.046;7.804;2022-11-15T08:54:06;10.80;99.90
19654;DHT22;9975;48.046;7.804;2022-11-15T08:56:32;10.80;99.90
19654;DHT22;9975;48.046;7.804;2022-11-15T08:58:58;10.80;99.90
19654;DHT22;9975;48.046;7.804;2022-11-15T09:01:23;10.80;99.90
19654;DHT22;9975;48.046;7.804;2022-11-15T09:03:49;10.80;99.90
19654;DHT22;9975;48.046;7.804;2022-11-15T09:06:15;10.80;99.90
19654;DHT22;9975;48.046;7.804;2022-11-15T09:08:40;10.80;99.90
19654;DHT22;9975;48.046;7.804;2022-11-15T09:11:09;10.80;99.90
19654;DHT22;9975;48.046;7.804;2022-11-15T09:13:36;10.80;99.90
19654;DHT22;9975;48.046;7.804;2022-11-15T09:16:05;10.80;99.90
19654;DHT22;9975;48.046;7.804;2022-11-15T09:18:31;10.60;99.90
19654;DHT22;9975;48.046;7.804;2022-11-15T09:20:58;10.60;99.90
19654;DHT22;9975;48.046;7.804;2022-11-15T09:23:25;10.70;99.90
19654;DHT22;9975;48.046;7.804;2022-11-15T09:25:51;10.70;99.90
19654;DHT22;9975;48.046;7.804;2022-11-15T09:28:17;10.80;99.90
19654;DHT22;9975;48.046;7.804;2022-11-15T09:30:43;10.90;99.90
19654;DHT22;9975;48.046;7.804;2022-11-15T09:33:10;10.90;99.90
19654;DHT22;9975;48.046;7.804;2022-11-15T09:35:36;11.20;99.90
19654;DHT22;9975;48.046;7.804;2022-11-15T09:38:02;11.20;99.90
19654;DHT22;9975;48.046;7.804;2022-11-15T09:40:29;11.30;99.90
19654;DHT22;9975;48.046;7.804;2022-11-15T09:48:59;11.30;99.90
19654;DHT22;9975;48.046;7.804;2022-11-15T09:51:35;11.40;99.90
19654;DHT22;9975;48.046;7.804;2022-11-15T09:56:37;11.30;99.90
19654;DHT22;9975;48.046;7.804;2022-11-15T10:04:24;11.50;99.90
19654;DHT22;9975;48.046;7.804;2022-11-15T10:07:02;11.50;99.90
19654;DHT22;9975;48.046;7.804;2022-11-15T10:09:38;11.60;99.90
19654;DHT22;9975;48.046;7.804;2022-11-15T10:12:08;11.60;99.90
19654;DHT22;9975;48.046;7.804;2022-11-15T10:14:35;11.80;99.90
19654;DHT22;9975;48.046;7.804;2022-11-15T10:24:41;12.00;99.90
19654;DHT22;9975;48.046;7.804;2022-11-15T10:27:11;12.00;99.90
19654;DHT22;9975;48.046;7.804;2022-11-15T10:29:48;12.00;99.90
19654;DHT22;9975;48.046;7.804;2022-11-15T10:32:17;12.10;99.90
19654;DHT22;9975;48.046;7.804;2022-11-15T10:34:44;12.10;99.90
19654;DHT22;9975;48.046;7.804;2022-11-15T10:37:09;12.10;99.90
19654;DHT22;9975;48.046;7.804;2022-11-15T10:39:35;12.20;99.90
19654;DHT22;9975;48.046;7.804;2022-11-15T10:42:17;12.20;99.90
19654;DHT22;9975;48.046;7.804;2022-11-15T10:44:45;12.20;99.90
19654;DHT22;9975;48.046;7.804;2022-11-15T10:47:31;12.30;99.90
19654;DHT22;9975;48.046;7.804;2022-11-15T10:50:07;12.40;99.90
19654;DHT22;9975;48.046;7.804;2022-11-15T10:52:50;12.30;99.90
19654;DHT22;9975;48.046;7.804;2022-11-15T10:57:52;12.40;99.90
19654;DHT22;9975;48.046;7.804;2022-11-15T11:03:20;12.50;99.90
19654;DHT22;9975;48.046;7.804;2022-11-15T11:05:47;12.50;99.90
19654;DHT22;9975;48.046;7.804;2022-11-15T11:10:38;12.50;99.90
19654;DHT22;9975;48.046;7.804;2022-11-15T11:13:27;12.60;99.90
19654;DHT22;9975;48.046;7.804;2022-11-15T11:18:33;12.60;99.90
19654;DHT22;9975;48.046;7.804;2022-11-15T11:21:08;12.60;99.90
19654;DHT22;9975;48.046;7.804;2022-11-15T11:23:47;12.50;99.90
19654;DHT22;9975;48.046;7.804;2022-11-15T11:32:34;12.60;99.90
19654;DHT22;9975;48.046;7.804;2022-11-15T11:35:22;12.70;99.90
19654;DHT22;9975;48.046;7.804;2022-11-15T11:41:13;12.80;99.90
19654;DHT22;9975;48.046;7.804;2022-11-15T11:46:34;12.80;99.90
19654;DHT22;9975;48.046;7.804;2022-11-15T11:49:02;12.80;99.90
19654;DHT22;9975;48.046;7.804;2022-11-15T11:51:54;12.90;99.90
19654;DHT22;9975;48.046;7.804;2022-11-15T11:57:52;13.00;99.90
19654;DHT22;9975;48.046;7.804;2022-11-15T12:00:22;13.00;99.90
19654;DHT22;9975;48.046;7.804;2022-11-15T12:03:05;13.00;99.90
19654;DHT22;9975;48.046;7.804;2022-11-15T12:08:31;13.00;99.90
19654;DHT22;9975;48.046;7.804;2022-11-15T12:13:38;13.00;99.90
19654;DHT22;9975;48.046;7.804;2022-11-15T12:18:47;13.00;99.90
19654;DHT22;9975;48.046;7.804;2022-11-15T12:21:20;13.00;99.90
19654;DHT22;9975;48.046;7.804;2022-11-15T12:23:50;13.00;99.90
19654;DHT22;9975;48.046;7.804;2022-11-15T12:26:22;13.10;99.90
19654;DHT22;9975;48.046;7.804;2022-11-15T12:28:55;13.10;99.90
19654;DHT22;9975;48.046;7.804;2022-11-15T12:34:13;13.10;99.90
19654;DHT22;9975;48.046;7.804;2022-11-15T12:36:42;13.10;99.90
19654;DHT22;9975;48.046;7.804;2022-11-15T12:39:12;13.10;99.90
19654;DHT22;9975;48.046;7.804;2022-11-15T12:41:43;13.00;99.90
19654;DHT22;9975;48.046;7.804;2022-11-15T13:02:37;12.80;99.90
19654;DHT22;9975;48.046;7.804;2022-11-15T13:17:46;12.90;99.90
19654;DHT22;9975;48.046;7.804;2022-11-15T13:35:55;12.90;99.90
19654;DHT22;9975;48.046;7.804;2022-11-15T13:40:50;12.80;99.90
19654;DHT22;9975;48.046;7.804;2022-11-15T13:48:37;12.80;99.90
19654;DHT22;9975;48.046;7.804;2022-11-15T13:51:05;12.70;99.90
19654;DHT22;9975;48.046;7.804;2022-11-15T13:53:33;12.70;99.90
19654;DHT22;9975;48.046;7.804;2022-11-15T13:56:00;12.70;99.90
19654;DHT22;9975;48.046;7.804;2022-11-15T13:58:26;12.70;99.90
19654;DHT22;9975;48.046;7.804;2022-11-15T14:01:04;12.70;99.90
19654;DHT22;9975;48.046;7.804;2022-11-15T14:03:37;12.70;99.90
19654;DHT22;9975;48.046;7.804;2022-11-15T14:06:14;12.70;99.90
19654;DHT22;9975;48.046;7.804;2022-11-15T14:08:57;12.80;99.90
19654;DHT22;9975;48.046;7.804;2022-11-15T14:11:23;12.70;99.90
19654;DHT22;9975;48.046;7.804;2022-11-15T14:16:50;12.70;99.90
19654;DHT22;9975;48.046;7.804;2022-11-15T14:22:13;12.80;99.90
19654;DHT22;9975;48.046;7.804;2022-11-15T14:24:42;12.80;99.90
19654;DHT22;9975;48.046;7.804;2022-11-15T14:27:24;12.80;99.90
19654;DHT22;9975;48.046;7.804;2022-11-15T14:29:50;12.80;99.90
19654;DHT22;9975;48.046;7.804;2022-11-15T14:32:24;12.80;99.90
19654;DHT22;9975;48.046;7.804;2022-11-15T14:34:59;12.80;99.90
19654;DHT22;9975;48.046;7.804;2022-11-15T14:37:28;12.80;99.90
19654;DHT22;9975;48.046;7.804;2022-11-15T14:39:54;12.70;99.90
19654;DHT22;9975;48.046;7.804;2022-11-15T14:42:23;12.70;99.90
19654;DHT22;9975;48.046;7.804;2022-11-15T14:44:49;12.80;99.90
19654;DHT22;9975;48.046;7.804;2022-11-15T14:47:15;12.70;99.90
19654;DHT22;9975;48.046;7.804;2022-11-15T14:49:41;12.70;99.90
19654;DHT22;9975;48.046;7.804;2022-11-15T14:52:30;12.70;99.90
19654;DHT22;9975;48.046;7.804;2022-11-15T14:55:00;12.70;99.90
19654;DHT22;9975;48.046;7.804;2022-11-15T14:57:26;12.70;99.90
19654;DHT22;9975;48.046;7.804;2022-11-15T14:59:52;12.70;99.90
19654;DHT22;9975;48.046;7.804;2022-11-15T15:02:24;12.70;99.90
19654;DHT22;9975;48.046;7.804;2022-11-15T15:04:50;12.70;99.90
19654;DHT22;9975;48.046;7.804;2022-11-15T15:07:17;12.70;99.90
19654;DHT22;9975;48.046;7.804;2022-11-15T15:09:44;12.60;99.90
19654;DHT22;9975;48.046;7.804;2022-11-15T15:12:18;12.60;99.90
19654;DHT22;9975;48.046;7.804;2022-11-15T15:14:44;12.60;99.90
19654;DHT22;9975;48.046;7.804;2022-11-15T15:17:10;12.60;99.90
19654;DHT22;9975;48.046;7.804;2022-11-15T15:19:36;12.50;99.90
19654;DHT22;9975;48.046;7.804;2022-11-15T15:22:02;12.60;99.90
19654;DHT22;9975;48.046;7.804;2022-11-15T15:24:28;12.60;99.90
19654;DHT22;9975;48.046;7.804;2022-11-15T15:26:57;12.50;99.90
19654;DHT22;9975;48.046;7.804;2022-11-15T15:29:22;12.50;99.90
19654;DHT22;9975;48.046;7.804;2022-11-15T15:31:48;12.40;99.90
19654;DHT22;9975;48.046;7.804;2022-11-15T15:34:13;12.40;99.90
19654;DHT22;9975;48.046;7.804;2022-11-15T15:36:39;12.40;99.90
19654;DHT22;9975;48.046;7.804;2022-11-15T15:39:07;12.30;99.90
19654;DHT22;9975;48.046;7.804;2022-11-15T15:41:44;12.30;99.90
19654;DHT22;9975;48.046;7.804;2022-11-15T15:44:10;12.30;99.90
19654;DHT22;9975;48.046;7.804;2022-11-15T15:46:36;12.20;99.90
19654;DHT22;9975;48.046;7.804;2022-11-15T15:49:02;12.20;99.90
19654;DHT22;9975;48.046;7.804;2022-11-15T15:51:27;12.20;99.90
19654;DHT22;9975;48.046;7.804;2022-11-15T15:56:22;12.20;99.90
19654;DHT22;9975;48.046;7.804;2022-11-15T15:58:48;12.20;99.90
19654;DHT22;9975;48.046;7.804;2022-11-15T16:01:13;12.10;99.90
19654;DHT22;9975;48.046;7.804;2022-11-15T16:03:39;12.20;99.90
19654;DHT22;9975;48.046;7.804;2022-11-15T16:06:04;12.20;99.90
19654;DHT22;9975;48.046;7.804;2022-11-15T16:08:30;12.00;99.90
19654;DHT22;9975;48.046;7.804;2022-11-15T16:10:56;12.00;99.90
19654;DHT22;9975;48.046;7.804;2022-11-15T16:13:21;12.10;99.90
19654;DHT22;9975;48.046;7.804;2022-11-15T16:15:50;12.00;99.90
19654;DHT22;9975;48.046;7.804;2022-11-15T16:18:18;12.10;99.90
19654;DHT22;9975;48.046;7.804;2022-11-15T16:20:46;12.10;99.90
19654;DHT22;9975;48.046;7.804;2022-11-15T16:23:16;12.10;99.90
19654;DHT22;9975;48.046;7.804;2022-11-15T16:25:51;12.10;99.90
19654;DHT22;9975;48.046;7.804;2022-11-15T16:28:22;12.10;99.90
19654;DHT22;9975;48.046;7.804;2022-11-15T16:30:48;12.10;99.90
19654;DHT22;9975;48.046;7.804;2022-11-15T16:33:15;12.10;99.90
19654;DHT22;9975;48.046;7.804;2022-11-15T16:35:42;12.10;99.90
19654;DHT22;9975;48.046;7.804;2022-11-15T16:38:14;12.00;99.90
19654;DHT22;9975;48.046;7.804;2022-11-15T16:40:40;12.00;99.90
19654;DHT22;9975;48.046;7.804;2022-11-15T16:43:05;11.90;99.90
19654;DHT22;9975;48.046;7.804;2022-11-15T16:45:33;11.90;99.90
19654;DHT22;9975;48.046;7.804;2022-11-15T16:48:00;11.90;99.90
19654;DHT22;9975;48.046;7.804;2022-11-15T16:50:31;11.90;99.90
19654;DHT22;9975;48.046;7.804;2022-11-15T16:52:59;11.90;99.90
19654;DHT22;9975;48.046;7.804;2022-11-15T16:55:28;11.80;99.90
19654;DHT22;9975;48.046;7.804;2022-11-15T16:57:55;11.80;99.90
19654;DHT22;9975;48.046;7.804;2022-11-15T17:00:22;11.80;99.90
19654;DHT22;9975;48.046;7.804;2022-11-15T17:02:49;11.80;99.90
19654;DHT22;9975;48.046;7.804;2022-11-15T17:05:17;11.80;99.90
19654;DHT22;9975;48.046;7.804;2022-11-15T17:07:49;11.80;99.90
19654;DHT22;9975;48.046;7.804;2022-11-15T17:10:19;11.80;99.90
19654;DHT22;9975;48.046;7.804;2022-11-15T17:12:45;11.80;99.90
19654;DHT22;9975;48.046;7.804;2022-11-15T17:15:12;11.80;99.90
19654;DHT22;9975;48.046;7.804;2022-11-15T17:17:38;11.80;99.90
19654;DHT22;9975;48.046;7.804;2022-11-15T17:20:05;11.70;99.90
19654;DHT22;9975;48.046;7.804;2022-11-15T17:22:35;11.80;99.90
19654;DHT22;9975;48.046;7.804;2022-11-15T17:25:01;11.80;99.90
19654;DHT22;9975;48.046;7.804;2022-11-15T17:27:27;11.80;99.90
19654;DHT22;9975;48.046;7.804;2022-11-15T17:29:54;11.90;99.90
19654;DHT22;9975;48.046;7.804;2022-11-15T17:32:19;11.90;99.90
19654;DHT22;9975;48.046;7.804;2022-11-15T17:37:11;11.80;99.90
19654;DHT22;9975;48.046;7.804;2022-11-15T17:39:38;11.80;99.90
19654;DHT22;9975;48.046;7.804;2022-11-15T17:42:03;11.80;99.90
19654;DHT22;9975;48.046;7.804;2022-11-15T17:44:29;11.70;99.90
19654;DHT22;9975;48.046;7.804;2022-11-15T17:46:55;11.80;99.90
19654;DHT22;9975;48.046;7.804;2022-11-15T17:49:21;11.70;99.90
19654;DHT22;9975;48.046;7.804;2022-11-15T17:51:46;11.60;99.90
19654;DHT22;9975;48.046;7.804;2022-11-15T17:54:12;11.60;99.90
19654;DHT22;9975;48.046;7.804;2022-11-15T17:56:40;11.60;99.90
19654;DHT22;9975;48.046;7.804;2022-11-15T17:59:06;11.60;99.90
19654;DHT22;9975;48.046;7.804;2022-11-15T18:01:36;11.60;99.90
19654;DHT22;9975;48.046;7.804;2022-11-15T18:04:06;11.50;99.90
19654;DHT22;9975;48.046;7.804;2022-11-15T18:06:33;11.40;99.90
19654;DHT22;9975;48.046;7.804;2022-11-15T18:09:00;11.40;99.90
19654;DHT22;9975;48.046;7.804;2022-11-15T18:11:28;11.40;99.90
19654;DHT22;9975;48.046;7.804;2022-11-15T18:13:56;11.40;99.90
19654;DHT22;9975;48.046;7.804;2022-11-15T18:16:24;11.40;99.90
19654;DHT22;9975;48.046;7.804;2022-11-15T18:18:52;11.40;99.90
19654;DHT22;9975;48.046;7.804;2022-11-15T18:21:20;11.40;99.90
19654;DHT22;9975;48.046;7.804;2022-11-15T18:23:48;11.50;99.90
19654;DHT22;9975;48.046;7.804;2022-11-15T18:26:15;11.60;99.90
19654;DHT22;9975;48.046;7.804;2022-11-15T18:28:44;11.50;99.90
19654;DHT22;9975;48.046;7.804;2022-11-15T18:33:42;11.50;99.90
19654;DHT22;9975;48.046;7.804;2022-11-15T18:36:14;11.40;99.90
19654;DHT22;9975;48.046;7.804;2022-11-15T18:38:40;11.40;99.90
19654;DHT22;9975;48.046;7.804;2022-11-15T18:41:16;11.30;99.90
19654;DHT22;9975;48.046;7.804;2022-11-15T18:43:43;11.20;99.90
19654;DHT22;9975;48.046;7.804;2022-11-15T18:46:14;11.10;99.90
19654;DHT22;9975;48.046;7.804;2022-11-15T18:48:42;11.10;99.90
19654;DHT22;9975;48.046;7.804;2022-11-15T18:51:13;11.10;99.90
19654;DHT22;9975;48.046;7.804;2022-11-15T18:53:39;11.20;99.90
19654;DHT22;9975;48.046;7.804;2022-11-15T18:56:16;11.10;99.90
19654;DHT22;9975;48.046;7.804;2022-11-15T18:58:44;11.10;99.90
19654;DHT22;9975;48.046;7.804;2022-11-15T19:01:31;11.20;99.90
19654;DHT22;9975;48.046;7.804;2022-11-15T19:04:12;11.20;99.90
19654;DHT22;9975;48.046;7.804;2022-11-15T19:06:40;11.10;99.90
19654;DHT22;9975;48.046;7.804;2022-11-15T19:09:07;11.00;99.90
19654;DHT22;9975;48.046;7.804;2022-11-15T19:11:35;11.10;99.90
19654;DHT22;9975;48.046;7.804;2022-11-15T19:16:33;11.20;99.90
19654;DHT22;9975;48.046;7.804;2022-11-15T19:19:01;11.20;99.90
19654;DHT22;9975;48.046;7.804;2022-11-15T19:21:28;11.20;99.90
19654;DHT22;9975;48.046;7.804;2022-11-15T19:23:55;11.10;99.90
19654;DHT22;9975;48.046;7.804;2022-11-15T19:26:22;11.10;99.90
19654;DHT22;9975;48.046;7.804;2022-11-15T19:28:59;11.20;99.90
19654;DHT22;9975;48.046;7.804;2022-11-15T19:31:28;11.20;99.90
19654;DHT22;9975;48.046;7.804;2022-11-15T19:33:54;11.10;99.90
19654;DHT22;9975;48.046;7.804;2022-11-15T19:36:27;11.20;99.90
19654;DHT22;9975;48.046;7.804;2022-11-15T19:38:56;11.20;99.90
19654;DHT22;9975;48.046;7.804;2022-11-15T19:41:23;11.20;99.90
19654;DHT22;9975;48.046;7.804;2022-11-15T19:43:50;11.20;99.90
19654;DHT22;9975;48.046;7.804;2022-11-15T19:46:17;11.20;99.90
19654;DHT22;9975;48.046;7.804;2022-11-15T19:48:45;11.10;99.90
19654;DHT22;9975;48.046;7.804;2022-11-15T19:51:13;11.20;99.90
19654;DHT22;9975;48.046;7.804;2022-11-15T19:53:40;11.10;99.90
19654;DHT22;9975;48.046;7.804;2022-11-15T19:56:14;11.10;99.90
19654;DHT22;9975;48.046;7.804;2022-11-15T19:58:41;11.10;99.90
19654;DHT22;9975;48.046;7.804;2022-11-15T20:01:26;11.00;99.90
19654;DHT22;9975;48.046;7.804;2022-11-15T20:03:53;11.00;99.90
19654;DHT22;9975;48.046;7.804;2022-11-15T20:06:25;10.90;99.90
19654;DHT22;9975;48.046;7.804;2022-11-15T20:08:51;11.00;99.90
19654;DHT22;9975;48.046;7.804;2022-11-15T20:11:17;10.90;99.90
19654;DHT22;9975;48.046;7.804;2022-11-15T20:13:43;10.80;99.90
19654;DHT22;9975;48.046;7.804;2022-11-15T20:16:17;10.90;99.90
19654;DHT22;9975;48.046;7.804;2022-11-15T20:18:43;10.90;99.90
19654;DHT22;9975;48.046;7.804;2022-11-15T20:21:09;10.90;99.90
19654;DHT22;9975;48.046;7.804;2022-11-15T20:23:35;11.00;99.90
19654;DHT22;9975;48.046;7.804;2022-11-15T20:26:01;11.20;99.90
19654;DHT22;9975;48.046;7.804;2022-11-15T20:28:27;11.00;99.90
19654;DHT22;9975;48.046;7.804;2022-11-15T20:30:58;11.00;99.90
19654;DHT22;9975;48.046;7.804;2022-11-15T20:33:24;11.00;99.90
19654;DHT22;9975;48.046;7.804;2022-11-15T20:35:50;11.00;99.90
19654;DHT22;9975;48.046;7.804;2022-11-15T20:38:16;10.90;99.90
19654;DHT22;9975;48.046;7.804;2022-11-15T20:40:45;11.00;99.90
19654;DHT22;9975;48.046;7.804;2022-11-15T20:43:14;11.00;99.90
19654;DHT22;9975;48.046;7.804;2022-11-15T20:45:43;10.90;99.90